createdAt,value
2022-11-12T00:01:15.270Z,10.42
2022-11-12T00:04:06.986Z,10.37
2022-11-12T00:06:58.397Z,10.33
2022-11-12T00:09:49.328Z,10.30
2022-11-12T00:12:40.507Z,10.32
2022-11-12T00:15:31.417Z,10.30
2022-11-12T00:18:22.152Z,10.25
2022-11-12T00:21:12.748Z,10.24
2022-11-12T00:24:06.011Z,10.20
2022-11-12T00:26:56.799Z,10.16
2022-11-12T00:29:48.026Z,10.13
2022-11-12T00:32:39.871Z,10.09
2022-11-12T00:35:31.811Z,10.08
2022-11-12T00:38:23.976Z,10.04
2022-11-12T00:41:16.473Z,10.05
2022-11-12T00:44:07.894Z,10.05
2022-11-12T00:46:59.074Z,10.05
2022-11-12T00:49:50.747Z,10.04
2022-11-12T00:52:41.494Z,10.05
2022-11-12T00:55:32.932Z,10.03
2022-11-12T00:58:24.822Z,10.06
2022-11-12T01:01:20.476Z,10.04
2022-11-12T01:04:11.456Z,10.05
2022-11-12T01:07:02.972Z,10.10
2022-11-12T01:09:54.132Z,10.09
2022-11-12T01:12:48.396Z,10.09
2022-11-12T01:15:43.775Z,10.13
2022-11-12T01:18:34.413Z,10.10
2022-11-12T01:21:26.559Z,10.06
2022-11-12T01:24:17.637Z,10.09
2022-11-12T01:27:08.826Z,10.14
2022-11-12T01:29:59.887Z,10.11
2022-11-12T01:32:50.772Z,10.03
2022-11-12T01:35:41.853Z,10.08
2022-11-12T01:38:36.779Z,10.10
2022-11-12T01:41:29.653Z,10.00
2022-11-12T01:44:22.731Z,9.96
2022-11-12T01:47:21.223Z,10.02
2022-11-12T01:50:18.587Z,9.93
2022-11-12T01:53:12.683Z,9.87
2022-11-12T01:56:06.890Z,9.84
2022-11-12T01:59:01.786Z,9.71
2022-11-12T02:01:52.714Z,9.75
2022-11-12T02:04:45.728Z,9.72
2022-11-12T02:07:38.060Z,9.77
2022-11-12T02:10:29.147Z,9.62
2022-11-12T02:13:38.911Z,9.52
2022-11-12T02:16:33.535Z,9.55
2022-11-12T02:19:24.589Z,9.56
2022-11-12T02:22:15.298Z,9.59
2022-11-12T02:25:06.898Z,9.52
2022-11-12T02:27:59.551Z,9.56
2022-11-12T02:30:52.126Z,9.62
2022-11-12T02:33:42.908Z,9.64
2022-11-12T02:36:33.706Z,9.75
2022-11-12T02:39:24.734Z,9.75
2022-11-12T02:42:15.710Z,9.87
2022-11-12T02:45:08.095Z,9.74
2022-11-12T02:47:59.841Z,9.94
2022-11-12T02:50:51.470Z,9.92
2022-11-12T02:53:41.836Z,9.89
2022-11-12T02:56:33.243Z,9.76
2022-11-12T02:59:24.207Z,9.67
2022-11-12T03:02:15.663Z,9.72
2022-11-12T03:05:07.168Z,9.75
2022-11-12T03:08:03.224Z,9.73
2022-11-12T03:10:54.876Z,9.60
2022-11-12T03:13:47.803Z,9.59
2022-11-12T03:16:39.671Z,9.61
2022-11-12T03:19:31.389Z,9.49
2022-11-12T03:22:22.031Z,9.57
2022-11-12T03:25:12.564Z,9.57
2022-11-12T03:28:05.110Z,9.65
2022-11-12T03:31:00.400Z,9.64
2022-11-12T03:33:51.058Z,9.66
2022-11-12T03:36:41.645Z,9.64
2022-11-12T03:39:32.171Z,9.58
2022-11-12T03:42:22.652Z,9.45
2022-11-12T03:45:13.074Z,9.39
2022-11-12T03:48:03.847Z,9.46
2022-11-12T03:50:58.075Z,9.44
2022-11-12T03:53:48.429Z,9.45
2022-11-12T03:56:39.548Z,9.37
2022-11-12T03:59:30.147Z,9.46
2022-11-12T04:02:20.714Z,9.49
2022-11-12T04:05:30.285Z,9.49
2022-11-12T04:08:38.006Z,9.54
2022-11-12T04:11:28.797Z,9.54
2022-11-12T04:14:19.997Z,9.54
2022-11-12T04:17:28.228Z,9.52
2022-11-12T04:20:36.905Z,9.48
2022-11-12T04:23:28.389Z,9.44
2022-11-12T04:26:24.871Z,9.38
2022-11-12T04:29:37.273Z,9.36
2022-11-12T04:32:28.980Z,9.31
2022-11-12T04:35:20.594Z,9.29
2022-11-12T04:38:11.264Z,9.27
2022-11-12T04:41:19.833Z,9.25
2022-11-12T04:44:29.272Z,9.25
2022-11-12T04:47:19.840Z,9.22
2022-11-12T04:50:16.975Z,9.22
2022-11-12T04:53:07.568Z,9.24
2022-11-12T04:55:59.925Z,9.23
2022-11-12T04:58:50.739Z,9.22
2022-11-12T05:01:41.492Z,9.21
2022-11-12T05:04:32.439Z,9.17
2022-11-12T05:07:22.832Z,9.20
2022-11-12T05:10:13.691Z,9.18
2022-11-12T05:13:04.475Z,9.18
2022-11-12T05:15:55.265Z,9.21
2022-11-12T05:18:45.907Z,9.22
2022-11-12T05:21:53.650Z,9.24
2022-11-12T05:24:45.624Z,9.29
2022-11-12T05:27:36.764Z,9.28
2022-11-12T05:30:27.422Z,9.31
2022-11-12T05:33:17.849Z,9.31
2022-11-12T05:36:09.650Z,9.44
2022-11-12T05:39:01.015Z,9.50
2022-11-12T05:42:11.962Z,9.62
2022-11-12T05:45:03.568Z,9.69
2022-11-12T05:47:54.187Z,9.77
2022-11-12T05:51:11.190Z,9.80
2022-11-12T05:53:57.731Z,9.84
2022-11-12T05:56:52.691Z,9.89
2022-11-12T05:59:44.659Z,9.92
2022-11-12T06:02:35.309Z,9.95
2022-11-12T06:05:26.001Z,9.97
2022-11-12T06:08:16.763Z,10.07
2022-11-12T06:11:07.628Z,10.09
2022-11-12T06:13:58.456Z,10.09
2022-11-12T06:16:51.271Z,10.13
2022-11-12T06:19:41.844Z,10.17
2022-11-12T06:22:32.521Z,10.21
2022-11-12T06:25:22.870Z,10.27
2022-11-12T06:28:14.005Z,10.28
2022-11-12T06:31:05.250Z,10.31
2022-11-12T06:33:56.006Z,10.31
2022-11-12T06:36:48.788Z,10.33
2022-11-12T06:39:39.582Z,10.27
2022-11-12T06:42:30.047Z,10.31
2022-11-12T06:45:20.745Z,10.31
2022-11-12T06:48:11.226Z,10.33
2022-11-12T06:51:09.243Z,10.40
2022-11-12T06:53:59.944Z,10.44
2022-11-12T06:56:51.193Z,10.49
2022-11-12T06:59:42.021Z,10.54
2022-11-12T07:02:32.945Z,10.60
2022-11-12T07:05:23.736Z,10.63
2022-11-12T07:08:14.286Z,10.65
2022-11-12T07:11:05.811Z,10.68
2022-11-12T07:13:56.389Z,10.70
2022-11-12T07:16:47.471Z,10.75
2022-11-12T07:19:38.101Z,10.79
2022-11-12T07:22:28.494Z,10.71
2022-11-12T07:25:19.144Z,10.84
2022-11-12T07:28:09.476Z,10.85
2022-11-12T07:31:01.500Z,10.89
2022-11-12T07:33:52.649Z,10.90
2022-11-12T07:36:43.155Z,10.90
2022-11-12T07:39:33.879Z,10.95
2022-11-12T07:42:24.477Z,10.97
2022-11-12T07:45:14.881Z,11.04
2022-11-12T07:48:05.987Z,11.03
2022-11-12T07:51:02.942Z,11.04
2022-11-12T07:53:59.011Z,11.10
2022-11-12T07:56:50.314Z,11.12
2022-11-12T07:59:45.685Z,11.17
2022-11-12T08:02:37.106Z,11.09
2022-11-12T08:05:27.885Z,11.11
2022-11-12T08:08:18.801Z,11.16
2022-11-12T08:11:11.628Z,11.18
2022-11-12T08:14:02.814Z,11.31
2022-11-12T08:16:53.678Z,11.33
2022-11-12T08:19:44.252Z,11.29
2022-11-12T08:22:35.929Z,11.26
2022-11-12T08:25:26.228Z,11.27
2022-11-12T08:28:16.491Z,11.35
2022-11-12T08:31:08.624Z,11.53
2022-11-12T08:33:59.053Z,11.49
2022-11-12T08:36:50.351Z,11.51
2022-11-12T08:39:40.929Z,11.61
2022-11-12T08:42:31.858Z,11.61
2022-11-12T08:45:22.735Z,11.61
2022-11-12T08:48:15.014Z,11.58
2022-11-12T08:51:06.114Z,11.59
2022-11-12T08:53:57.751Z,11.61
2022-11-12T08:56:48.478Z,11.55
2022-11-12T08:59:38.936Z,11.56
2022-11-12T09:02:29.935Z,11.51
2022-11-12T09:05:21.930Z,11.49
2022-11-12T09:08:15.979Z,11.45
2022-11-12T09:11:07.469Z,11.40
2022-11-12T09:14:01.665Z,11.35
2022-11-12T09:16:52.412Z,11.35
2022-11-12T09:19:43.278Z,11.40
2022-11-12T09:22:34.448Z,11.49
2022-11-12T09:25:25.340Z,11.52
2022-11-12T09:28:17.597Z,11.51
2022-11-12T09:31:10.264Z,11.54
2022-11-12T09:34:00.818Z,11.55
2022-11-12T09:36:51.653Z,11.65
2022-11-12T09:39:42.817Z,11.78
2022-11-12T09:42:35.075Z,11.86
2022-11-12T09:45:31.269Z,11.88
2022-11-12T09:48:26.778Z,11.93
2022-11-12T09:51:23.116Z,12.00
2022-11-12T09:54:23.594Z,12.01
2022-11-12T09:57:14.710Z,12.07
2022-11-12T10:00:11.136Z,12.10
2022-11-12T10:03:09.180Z,12.13
2022-11-12T10:06:05.993Z,12.18
2022-11-12T10:09:06.725Z,12.24
2022-11-12T10:12:34.490Z,12.20
2022-11-12T10:16:13.227Z,12.26
2022-11-12T10:19:20.225Z,12.21
2022-11-12T10:22:23.795Z,12.24
2022-11-12T10:25:19.806Z,12.33
2022-11-12T10:28:22.317Z,12.34
2022-11-12T10:31:16.098Z,12.38
2022-11-12T10:34:18.812Z,12.39
2022-11-12T10:37:13.910Z,12.31
2022-11-12T10:40:35.411Z,12.23
2022-11-12T10:43:27.416Z,12.34
2022-11-12T10:46:23.173Z,12.28
2022-11-12T10:49:26.590Z,12.31
2022-11-12T10:52:26.899Z,12.39
2022-11-12T10:55:23.546Z,12.37
2022-11-12T10:58:21.032Z,12.40
2022-11-12T11:01:17.836Z,12.54
2022-11-12T11:04:19.719Z,12.49
2022-11-12T11:07:22.233Z,12.50
2022-11-12T11:10:26.658Z,12.56
2022-11-12T11:13:27.860Z,12.44
2022-11-12T11:16:20.940Z,12.34
2022-11-12T11:19:13.930Z,12.42
2022-11-12T11:22:21.155Z,12.45
2022-11-12T11:25:27.835Z,12.44
2022-11-12T11:28:26.306Z,12.47
2022-11-12T11:31:27.705Z,12.52
2022-11-12T11:34:29.936Z,12.56
2022-11-12T11:37:29.249Z,12.59
2022-11-12T11:40:27.859Z,12.54
2022-11-12T11:43:41.768Z,12.65
2022-11-12T11:46:50.777Z,12.73
2022-11-12T11:50:00.163Z,12.70
2022-11-12T11:53:00.086Z,12.71
2022-11-12T11:55:58.263Z,12.68
2022-11-12T11:59:12.547Z,12.67
2022-11-12T12:02:43.930Z,12.65
2022-11-12T12:05:44.259Z,12.66
2022-11-12T12:08:47.435Z,12.76
2022-11-12T12:11:45.161Z,12.79
2022-11-12T12:14:55.868Z,12.70
2022-11-12T12:17:58.955Z,12.78
2022-11-12T12:20:55.278Z,12.89
2022-11-12T12:23:51.957Z,12.87
2022-11-12T12:26:47.201Z,12.72
2022-11-12T12:29:44.430Z,12.75
2022-11-12T12:32:38.644Z,12.67
2022-11-12T12:35:32.833Z,12.85
2022-11-12T12:38:28.645Z,12.94
2022-11-12T12:41:27.828Z,12.94
2022-11-12T12:44:18.412Z,12.91
2022-11-12T12:47:14.515Z,12.94
2022-11-12T12:50:09.065Z,12.90
2022-11-12T12:53:03.908Z,12.91
2022-11-12T12:55:55.724Z,12.86
2022-11-12T12:58:48.239Z,12.71
2022-11-12T13:01:39.116Z,12.74
2022-11-12T13:04:54.808Z,12.86
2022-11-12T13:07:48.764Z,12.93
2022-11-12T13:10:59.577Z,12.83
2022-11-12T13:13:50.071Z,12.84
2022-11-12T13:17:01.586Z,12.89
2022-11-12T13:20:34.766Z,12.76
2022-11-12T13:24:05.772Z,12.90
2022-11-12T13:26:59.389Z,12.91
2022-11-12T13:29:50.568Z,12.92
2022-11-12T13:32:45.026Z,12.91
2022-11-12T13:35:39.719Z,13.01
2022-11-12T13:38:30.930Z,12.96
2022-11-12T13:41:44.364Z,13.03
2022-11-12T13:44:37.723Z,12.92
2022-11-12T13:47:29.822Z,12.92
2022-11-12T13:50:23.849Z,12.88
2022-11-12T13:53:23.704Z,12.81
2022-11-12T13:56:27.915Z,12.76
2022-11-12T13:59:21.105Z,12.90
2022-11-12T14:02:22.195Z,12.90
2022-11-12T14:05:19.166Z,12.85
2022-11-12T14:08:51.719Z,12.86
2022-11-12T14:11:59.222Z,12.86
2022-11-12T14:15:10.875Z,12.82
2022-11-12T14:18:14.173Z,12.96
2022-11-12T14:21:12.394Z,12.98
2022-11-12T14:24:06.284Z,13.00
2022-11-12T14:26:57.406Z,13.04
2022-11-12T14:29:49.142Z,13.08
2022-11-12T14:32:42.864Z,13.08
2022-11-12T14:35:36.584Z,13.11
2022-11-12T14:38:31.886Z,13.17
2022-11-12T14:41:24.972Z,13.09
2022-11-12T14:44:20.512Z,13.08
2022-11-12T14:47:12.293Z,13.06
2022-11-12T14:50:03.579Z,13.05
2022-11-12T14:52:59.376Z,13.03
2022-11-12T14:55:54.213Z,13.03
2022-11-12T14:58:45.336Z,13.01
2022-11-12T15:05:02.851Z,12.98
2022-11-12T15:07:59.525Z,12.99
2022-11-12T15:10:50.252Z,12.97
2022-11-12T15:13:43.594Z,13.00
2022-11-12T15:16:36.283Z,13.00
2022-11-12T15:19:28.398Z,12.98
2022-11-12T15:22:24.031Z,12.98
2022-11-12T15:25:23.670Z,13.00
2022-11-12T15:28:25.579Z,12.99
2022-11-12T15:31:21.954Z,12.99
2022-11-12T15:34:45.460Z,12.95
2022-11-12T15:37:44.347Z,12.96
2022-11-12T15:40:43.257Z,12.98
2022-11-12T15:43:36.834Z,12.97
2022-11-12T15:46:27.648Z,12.97
2022-11-12T15:49:18.447Z,12.98
2022-11-12T15:52:08.917Z,12.99
2022-11-12T15:55:00.022Z,12.99
2022-11-12T15:57:53.151Z,13.00
2022-11-12T16:00:44.089Z,12.95
2022-11-12T16:03:34.820Z,12.95
2022-11-12T16:06:26.001Z,12.97
2022-11-12T16:09:17.056Z,12.97
2022-11-12T16:12:10.218Z,12.97
2022-11-12T16:15:19.122Z,12.97
2022-11-12T16:18:13.084Z,12.96
2022-11-12T16:21:03.844Z,12.95
2022-11-12T16:23:54.301Z,12.92
2022-11-12T16:26:45.393Z,12.91
2022-11-12T16:29:37.109Z,12.96
2022-11-12T16:32:29.218Z,12.98
2022-11-12T16:35:23.124Z,12.98
2022-11-12T16:38:18.587Z,12.97
2022-11-12T16:41:13.285Z,12.98
2022-11-12T16:44:05.000Z,12.98
2022-11-12T16:46:57.093Z,13.01
2022-11-12T16:49:49.361Z,13.01
2022-11-12T16:52:41.113Z,13.00
2022-11-12T16:55:34.054Z,12.98
2022-11-12T16:58:24.951Z,13.01
2022-11-12T17:01:25.137Z,13.03
2022-11-12T17:04:16.092Z,13.02
2022-11-12T17:07:08.238Z,12.97
2022-11-12T17:09:59.503Z,12.99
2022-11-12T17:12:52.442Z,13.01
2022-11-12T17:15:43.187Z,13.00
2022-11-12T17:18:34.058Z,13.01
2022-11-12T17:21:25.308Z,12.99
2022-11-12T17:24:15.665Z,13.01
2022-11-12T17:27:06.027Z,12.97
2022-11-12T17:29:56.958Z,12.95
2022-11-12T17:32:49.022Z,12.97
2022-11-12T17:35:39.626Z,12.98
2022-11-12T17:38:30.796Z,12.98
2022-11-12T17:41:21.775Z,12.99
2022-11-12T17:44:16.361Z,12.98
2022-11-12T17:47:07.025Z,12.99
2022-11-12T17:49:57.871Z,12.98
2022-11-12T17:52:48.529Z,12.99
2022-11-12T17:55:38.835Z,12.97
2022-11-12T17:58:29.562Z,13.00
2022-11-12T18:01:22.279Z,13.02
2022-11-12T18:04:13.987Z,13.04
2022-11-12T18:07:04.786Z,13.04
2022-11-12T18:09:55.553Z,13.04
2022-11-12T18:12:46.823Z,13.06
2022-11-12T18:15:37.410Z,13.07
2022-11-12T18:18:28.247Z,13.06
2022-11-12T18:21:19.584Z,13.05
2022-11-12T18:24:16.263Z,13.04
2022-11-12T18:27:06.851Z,13.03
2022-11-12T18:29:57.688Z,13.03
2022-11-12T18:32:48.483Z,13.03
2022-11-12T18:35:39.310Z,12.99
2022-11-12T18:38:30.010Z,13.02
2022-11-12T18:41:25.638Z,13.03
2022-11-12T18:44:16.746Z,13.06
2022-11-12T18:47:07.874Z,13.07
2022-11-12T18:50:00.890Z,13.07
2022-11-12T18:52:54.571Z,13.04
2022-11-12T18:55:45.312Z,13.05
2022-11-12T18:58:36.180Z,13.04
2022-11-12T19:01:27.505Z,13.03
2022-11-12T19:04:18.205Z,13.01
2022-11-12T19:11:02.254Z,13.03
2022-11-12T19:14:24.220Z,13.05
2022-11-12T19:21:45.323Z,13.07
2022-11-12T19:24:37.130Z,13.06
2022-11-12T19:27:30.046Z,13.07
2022-11-12T19:30:21.326Z,13.06
2022-11-12T19:33:15.097Z,13.05
2022-11-12T19:36:14.179Z,13.03
2022-11-12T19:42:23.673Z,13.09
2022-11-12T19:49:05.316Z,13.13
2022-11-12T19:51:57.275Z,13.13
2022-11-12T19:54:49.346Z,13.14
2022-11-12T19:57:42.366Z,13.14
2022-11-12T20:00:33.636Z,13.12
2022-11-12T20:03:26.676Z,13.12
2022-11-12T20:06:23.388Z,13.10
2022-11-12T20:09:15.150Z,13.11
2022-11-12T20:12:12.398Z,13.13
2022-11-12T20:15:04.480Z,13.13
2022-11-12T20:17:57.088Z,13.13
2022-11-12T20:20:51.765Z,13.13
2022-11-12T20:23:45.473Z,13.14
2022-11-12T20:26:37.068Z,13.15
2022-11-12T20:29:27.732Z,13.15
2022-11-12T20:32:19.271Z,13.15
2022-11-12T20:39:00.159Z,13.14
2022-11-12T20:41:50.526Z,13.14
2022-11-12T20:44:41.283Z,13.14
2022-11-12T20:47:33.529Z,13.14
2022-11-12T20:50:24.691Z,13.16
2022-11-12T20:53:16.195Z,13.16
2022-11-12T20:59:31.792Z,13.15
2022-11-12T21:02:46.305Z,13.16
2022-11-12T21:05:38.368Z,13.16
2022-11-12T21:08:32.409Z,13.15
2022-11-12T21:11:24.604Z,13.16
2022-11-12T21:14:17.399Z,13.16
2022-11-12T21:17:10.320Z,13.16
2022-11-12T21:20:05.583Z,13.15
2022-11-12T21:22:59.894Z,13.16
2022-11-12T21:26:23.431Z,13.14
2022-11-12T21:29:19.025Z,13.14
2022-11-12T21:32:35.750Z,13.15
2022-11-12T21:35:28.158Z,13.16
2022-11-12T21:38:23.784Z,13.14
2022-11-12T21:41:17.508Z,13.14
2022-11-12T21:44:08.978Z,13.14
2022-11-12T21:46:59.784Z,13.13
2022-11-12T21:49:50.847Z,13.03
2022-11-12T21:52:41.692Z,13.11
2022-11-12T21:55:32.725Z,13.12
2022-11-12T21:58:24.793Z,13.03
2022-11-12T22:01:18.118Z,13.10
2022-11-12T22:04:16.972Z,13.09
2022-11-12T22:07:11.308Z,13.10
2022-11-12T22:10:02.154Z,13.10
2022-11-12T22:13:24.841Z,13.09
2022-11-12T22:16:14.944Z,13.10
2022-11-12T22:19:05.737Z,13.08
2022-11-12T22:21:57.658Z,12.99
2022-11-12T22:24:48.604Z,13.08
2022-11-12T22:27:40.879Z,13.07
2022-11-12T22:30:33.853Z,13.07
2022-11-12T22:33:25.082Z,13.08
2022-11-12T22:36:19.130Z,13.08
2022-11-12T22:39:10.853Z,13.09
2022-11-12T22:42:01.295Z,13.07
2022-11-12T22:44:52.284Z,13.08
2022-11-12T22:47:43.517Z,13.07
2022-11-12T22:50:34.621Z,13.08
2022-11-12T22:53:25.048Z,13.09
2022-11-12T22:56:18.139Z,13.10
2022-11-12T22:59:11.153Z,13.08
2022-11-12T23:02:01.963Z,13.09
2022-11-12T23:04:53.503Z,13.09
2022-11-12T23:07:44.347Z,13.09
2022-11-12T23:10:41.595Z,13.09
2022-11-12T23:13:35.784Z,13.10
2022-11-12T23:16:29.608Z,13.10
2022-11-12T23:19:20.395Z,13.10
2022-11-12T23:22:11.419Z,13.10
2022-11-12T23:25:02.186Z,13.10
2022-11-12T23:27:53.253Z,13.10
2022-11-12T23:30:51.349Z,13.09
2022-11-12T23:33:44.520Z,13.10
2022-11-12T23:36:35.008Z,13.10
2022-11-12T23:39:25.712Z,13.11
2022-11-12T23:42:16.490Z,13.12
2022-11-12T23:45:08.097Z,13.11
2022-11-12T23:47:58.494Z,13.11
2022-11-12T23:50:51.065Z,13.12
2022-11-12T23:53:42.139Z,13.11
2022-11-12T23:56:32.666Z,13.11
2022-11-12T23:59:23.601Z,13.11
